sensor_id;sensor_type;location;lat;lon;timestamp;P1;durP1;ratioP1;P2;durP2;ratioP2
34278;SDS011;20538;51.528;9.942;2023-02-10T00:03:34;48.92;;;23.13;;
34278;SDS011;20538;51.528;9.942;2023-02-10T00:06:00;57.28;;;23.88;;
34278;SDS011;20538;51.528;9.942;2023-02-10T00:08:26;58.00;;;24.17;;
34278;SDS011;20538;51.528;9.942;2023-02-10T00:10:55;53.63;;;23.00;;
34278;SDS011;20538;51.528;9.942;2023-02-10T00:13:22;53.83;;;23.98;;
34278;SDS011;20538;51.528;9.942;2023-02-10T00:15:48;48.63;;;23.58;;
34278;SDS011;20538;51.528;9.942;2023-02-10T00:18:14;51.47;;;23.95;;
34278;SDS011;20538;51.528;9.942;2023-02-10T00:20:39;55.22;;;25.25;;
34278;SDS011;20538;51.528;9.942;2023-02-10T00:23:05;58.15;;;24.50;;
34278;SDS011;20538;51.528;9.942;2023-02-10T00:25:32;73.30;;;26.88;;
34278;SDS011;20538;51.528;9.942;2023-02-10T00:27:59;59.45;;;25.80;;
34278;SDS011;20538;51.528;9.942;2023-02-10T00:30:25;55.95;;;25.23;;
34278;SDS011;20538;51.528;9.942;2023-02-10T00:32:51;53.60;;;24.10;;
34278;SDS011;20538;51.528;9.942;2023-02-10T00:35:16;57.70;;;26.10;;
34278;SDS011;20538;51.528;9.942;2023-02-10T00:37:42;55.03;;;24.38;;
34278;SDS011;20538;51.528;9.942;2023-02-10T00:40:08;60.47;;;25.80;;
34278;SDS011;20538;51.528;9.942;2023-02-10T00:42:34;58.00;;;24.95;;
34278;SDS011;20538;51.528;9.942;2023-02-10T00:44:59;60.90;;;28.05;;
34278;SDS011;20538;51.528;9.942;2023-02-10T00:47:25;57.33;;;26.00;;
34278;SDS011;20538;51.528;9.942;2023-02-10T00:49:51;60.15;;;25.85;;
34278;SDS011;20538;51.528;9.942;2023-02-10T00:52:17;59.22;;;26.25;;
34278;SDS011;20538;51.528;9.942;2023-02-10T00:54:43;65.05;;;26.92;;
34278;SDS011;20538;51.528;9.942;2023-02-10T00:57:09;68.88;;;29.90;;
34278;SDS011;20538;51.528;9.942;2023-02-10T00:59:34;61.63;;;28.00;;
34278;SDS011;20538;51.528;9.942;2023-02-10T01:02:00;65.50;;;29.45;;
34278;SDS011;20538;51.528;9.942;2023-02-10T01:04:26;59.88;;;26.35;;
34278;SDS011;20538;51.528;9.942;2023-02-10T01:06:51;68.13;;;29.90;;
34278;SDS011;20538;51.528;9.942;2023-02-10T01:09:17;63.83;;;27.67;;
34278;SDS011;20538;51.528;9.942;2023-02-10T01:11:43;64.95;;;28.55;;
34278;SDS011;20538;51.528;9.942;2023-02-10T01:14:09;70.97;;;30.27;;
34278;SDS011;20538;51.528;9.942;2023-02-10T01:16:35;59.88;;;28.05;;
34278;SDS011;20538;51.528;9.942;2023-02-10T01:19:01;59.05;;;27.38;;
34278;SDS011;20538;51.528;9.942;2023-02-10T01:21:28;66.07;;;29.67;;
34278;SDS011;20538;51.528;9.942;2023-02-10T01:23:54;64.60;;;28.77;;
34278;SDS011;20538;51.528;9.942;2023-02-10T01:26:21;62.25;;;28.77;;
34278;SDS011;20538;51.528;9.942;2023-02-10T01:28:47;72.97;;;30.98;;
34278;SDS011;20538;51.528;9.942;2023-02-10T01:31:17;70.13;;;29.85;;
34278;SDS011;20538;51.528;9.942;2023-02-10T01:33:45;70.47;;;29.70;;
34278;SDS011;20538;51.528;9.942;2023-02-10T01:36:12;66.88;;;29.08;;
34278;SDS011;20538;51.528;9.942;2023-02-10T01:38:40;66.45;;;29.15;;
34278;SDS011;20538;51.528;9.942;2023-02-10T01:41:06;72.88;;;30.70;;
34278;SDS011;20538;51.528;9.942;2023-02-10T01:43:32;71.82;;;30.02;;
34278;SDS011;20538;51.528;9.942;2023-02-10T01:46:17;65.75;;;29.45;;
34278;SDS011;20538;51.528;9.942;2023-02-10T01:48:43;69.03;;;30.00;;
34278;SDS011;20538;51.528;9.942;2023-02-10T01:51:08;67.05;;;28.75;;
34278;SDS011;20538;51.528;9.942;2023-02-10T01:53:35;66.68;;;30.52;;
34278;SDS011;20538;51.528;9.942;2023-02-10T01:56:01;74.75;;;30.90;;
34278;SDS011;20538;51.528;9.942;2023-02-10T01:58:28;70.22;;;30.75;;
34278;SDS011;20538;51.528;9.942;2023-02-10T02:00:57;68.13;;;31.98;;
34278;SDS011;20538;51.528;9.942;2023-02-10T02:03:24;67.43;;;30.13;;
34278;SDS011;20538;51.528;9.942;2023-02-10T02:05:50;70.18;;;30.55;;
34278;SDS011;20538;51.528;9.942;2023-02-10T02:08:18;65.65;;;29.98;;
34278;SDS011;20538;51.528;9.942;2023-02-10T02:18:52;75.05;;;31.10;;
34278;SDS011;20538;51.528;9.942;2023-02-10T02:32:39;88.20;;;32.90;;
34278;SDS011;20538;51.528;9.942;2023-02-10T02:35:12;83.07;;;34.90;;
34278;SDS011;20538;51.528;9.942;2023-02-10T02:37:44;86.63;;;35.30;;
34278;SDS011;20538;51.528;9.942;2023-02-10T02:40:13;90.53;;;35.00;;
34278;SDS011;20538;51.528;9.942;2023-02-10T02:42:41;89.57;;;34.60;;
34278;SDS011;20538;51.528;9.942;2023-02-10T02:47:50;85.32;;;36.13;;
34278;SDS011;20538;51.528;9.942;2023-02-10T02:50:39;90.32;;;34.25;;
34278;SDS011;20538;51.528;9.942;2023-02-10T02:56:03;98.05;;;38.17;;
34278;SDS011;20538;51.528;9.942;2023-02-10T02:58:33;80.30;;;33.78;;
34278;SDS011;20538;51.528;9.942;2023-02-10T03:01:44;96.13;;;36.83;;
34278;SDS011;20538;51.528;9.942;2023-02-10T03:04:15;70.85;;;25.77;;
34278;SDS011;20538;51.528;9.942;2023-02-10T03:06:41;103.43;;;37.92;;
34278;SDS011;20538;51.528;9.942;2023-02-10T03:09:07;85.00;;;35.38;;
34278;SDS011;20538;51.528;9.942;2023-02-10T03:11:33;92.88;;;37.38;;
34278;SDS011;20538;51.528;9.942;2023-02-10T03:13:58;102.72;;;36.70;;
34278;SDS011;20538;51.528;9.942;2023-02-10T03:16:24;98.05;;;38.22;;
34278;SDS011;20538;51.528;9.942;2023-02-10T03:18:50;91.82;;;35.63;;
34278;SDS011;20538;51.528;9.942;2023-02-10T03:21:15;97.90;;;36.50;;
34278;SDS011;20538;51.528;9.942;2023-02-10T03:23:41;107.50;;;39.78;;
34278;SDS011;20538;51.528;9.942;2023-02-10T03:26:07;102.10;;;38.08;;
34278;SDS011;20538;51.528;9.942;2023-02-10T03:28:33;108.50;;;39.47;;
34278;SDS011;20538;51.528;9.942;2023-02-10T03:31:01;104.28;;;38.83;;
34278;SDS011;20538;51.528;9.942;2023-02-10T03:33:28;105.30;;;38.47;;
34278;SDS011;20538;51.528;9.942;2023-02-10T03:35:54;103.47;;;38.78;;
34278;SDS011;20538;51.528;9.942;2023-02-10T03:38:19;106.53;;;37.67;;
34278;SDS011;20538;51.528;9.942;2023-02-10T03:40:48;109.80;;;38.97;;
34278;SDS011;20538;51.528;9.942;2023-02-10T03:43:15;104.25;;;38.20;;
34278;SDS011;20538;51.528;9.942;2023-02-10T03:45:41;105.18;;;38.63;;
34278;SDS011;20538;51.528;9.942;2023-02-10T03:48:06;99.47;;;38.55;;
34278;SDS011;20538;51.528;9.942;2023-02-10T03:50:32;106.60;;;39.45;;
34278;SDS011;20538;51.528;9.942;2023-02-10T03:52:58;105.72;;;41.22;;
34278;SDS011;20538;51.528;9.942;2023-02-10T03:55:24;108.95;;;40.35;;
34278;SDS011;20538;51.528;9.942;2023-02-10T03:57:49;107.28;;;40.60;;
34278;SDS011;20538;51.528;9.942;2023-02-10T04:00:15;117.10;;;41.10;;
34278;SDS011;20538;51.528;9.942;2023-02-10T04:02:43;101.00;;;39.22;;
34278;SDS011;20538;51.528;9.942;2023-02-10T04:05:09;107.30;;;40.22;;
34278;SDS011;20538;51.528;9.942;2023-02-10T04:07:35;110.63;;;40.00;;
34278;SDS011;20538;51.528;9.942;2023-02-10T04:10:01;109.90;;;39.88;;
34278;SDS011;20538;51.528;9.942;2023-02-10T04:12:28;114.00;;;41.63;;
34278;SDS011;20538;51.528;9.942;2023-02-10T04:14:54;107.25;;;40.28;;
34278;SDS011;20538;51.528;9.942;2023-02-10T04:17:19;107.22;;;40.22;;
34278;SDS011;20538;51.528;9.942;2023-02-10T04:19:45;106.25;;;40.60;;
34278;SDS011;20538;51.528;9.942;2023-02-10T04:22:10;101.45;;;38.35;;
34278;SDS011;20538;51.528;9.942;2023-02-10T04:24:36;121.45;;;41.22;;
34278;SDS011;20538;51.528;9.942;2023-02-10T04:27:02;113.90;;;41.45;;
34278;SDS011;20538;51.528;9.942;2023-02-10T04:29:27;117.70;;;40.38;;
34278;SDS011;20538;51.528;9.942;2023-02-10T04:31:53;108.38;;;40.08;;
34278;SDS011;20538;51.528;9.942;2023-02-10T04:34:19;109.60;;;39.60;;
34278;SDS011;20538;51.528;9.942;2023-02-10T04:36:44;106.18;;;40.58;;
34278;SDS011;20538;51.528;9.942;2023-02-10T04:39:10;101.25;;;39.00;;
34278;SDS011;20538;51.528;9.942;2023-02-10T04:41:35;109.13;;;38.78;;
34278;SDS011;20538;51.528;9.942;2023-02-10T04:44:01;110.55;;;41.25;;
34278;SDS011;20538;51.528;9.942;2023-02-10T04:46:27;105.85;;;39.33;;
34278;SDS011;20538;51.528;9.942;2023-02-10T04:48:52;123.40;;;43.30;;
34278;SDS011;20538;51.528;9.942;2023-02-10T04:51:18;120.03;;;41.20;;
34278;SDS011;20538;51.528;9.942;2023-02-10T04:53:44;119.88;;;42.72;;
34278;SDS011;20538;51.528;9.942;2023-02-10T04:56:12;125.50;;;41.92;;
34278;SDS011;20538;51.528;9.942;2023-02-10T04:58:38;109.95;;;40.30;;
34278;SDS011;20538;51.528;9.942;2023-02-10T05:01:04;116.72;;;40.60;;
34278;SDS011;20538;51.528;9.942;2023-02-10T05:03:30;129.95;;;42.78;;
34278;SDS011;20538;51.528;9.942;2023-02-10T05:05:56;123.05;;;41.33;;
34278;SDS011;20538;51.528;9.942;2023-02-10T05:08:21;118.93;;;43.20;;
34278;SDS011;20538;51.528;9.942;2023-02-10T05:10:47;122.70;;;42.13;;
34278;SDS011;20538;51.528;9.942;2023-02-10T05:13:17;120.97;;;41.78;;
34278;SDS011;20538;51.528;9.942;2023-02-10T05:15:42;118.72;;;42.05;;
34278;SDS011;20538;51.528;9.942;2023-02-10T05:18:08;130.45;;;43.65;;
34278;SDS011;20538;51.528;9.942;2023-02-10T05:20:34;119.10;;;41.85;;
34278;SDS011;20538;51.528;9.942;2023-02-10T05:23:00;121.88;;;40.88;;
34278;SDS011;20538;51.528;9.942;2023-02-10T05:25:25;115.57;;;40.83;;
34278;SDS011;20538;51.528;9.942;2023-02-10T05:27:51;113.70;;;41.65;;
34278;SDS011;20538;51.528;9.942;2023-02-10T05:30:17;117.88;;;39.63;;
34278;SDS011;20538;51.528;9.942;2023-02-10T05:32:42;110.00;;;40.28;;
34278;SDS011;20538;51.528;9.942;2023-02-10T05:35:08;116.35;;;41.33;;
34278;SDS011;20538;51.528;9.942;2023-02-10T05:37:34;111.10;;;39.78;;
34278;SDS011;20538;51.528;9.942;2023-02-10T05:40:04;125.03;;;41.55;;
34278;SDS011;20538;51.528;9.942;2023-02-10T05:42:31;117.20;;;41.17;;
34278;SDS011;20538;51.528;9.942;2023-02-10T05:44:56;119.18;;;43.05;;
34278;SDS011;20538;51.528;9.942;2023-02-10T05:47:22;114.40;;;38.40;;
34278;SDS011;20538;51.528;9.942;2023-02-10T05:49:48;113.72;;;39.58;;
34278;SDS011;20538;51.528;9.942;2023-02-10T05:52:13;109.13;;;40.15;;
34278;SDS011;20538;51.528;9.942;2023-02-10T05:54:39;117.25;;;40.92;;
34278;SDS011;20538;51.528;9.942;2023-02-10T05:57:05;109.65;;;39.70;;
34278;SDS011;20538;51.528;9.942;2023-02-10T05:59:31;107.40;;;37.92;;
34278;SDS011;20538;51.528;9.942;2023-02-10T06:01:57;110.82;;;39.42;;
34278;SDS011;20538;51.528;9.942;2023-02-10T06:04:23;119.80;;;40.50;;
34278;SDS011;20538;51.528;9.942;2023-02-10T06:06:48;107.55;;;38.17;;
34278;SDS011;20538;51.528;9.942;2023-02-10T06:09:15;120.13;;;41.92;;
34278;SDS011;20538;51.528;9.942;2023-02-10T06:11:40;109.38;;;39.40;;
34278;SDS011;20538;51.528;9.942;2023-02-10T06:14:06;116.53;;;40.22;;
34278;SDS011;20538;51.528;9.942;2023-02-10T06:16:35;115.28;;;40.00;;
34278;SDS011;20538;51.528;9.942;2023-02-10T06:19:00;99.05;;;36.83;;
34278;SDS011;20538;51.528;9.942;2023-02-10T06:21:26;115.85;;;41.45;;
34278;SDS011;20538;51.528;9.942;2023-02-10T06:23:52;124.03;;;42.67;;
34278;SDS011;20538;51.528;9.942;2023-02-10T06:26:18;116.53;;;41.25;;
34278;SDS011;20538;51.528;9.942;2023-02-10T06:28:44;114.22;;;39.92;;
34278;SDS011;20538;51.528;9.942;2023-02-10T06:31:09;115.28;;;40.03;;
34278;SDS011;20538;51.528;9.942;2023-02-10T06:33:35;111.75;;;40.15;;
34278;SDS011;20538;51.528;9.942;2023-02-10T06:36:04;113.95;;;41.67;;
34278;SDS011;20538;51.528;9.942;2023-02-10T06:38:35;121.82;;;42.72;;
34278;SDS011;20538;51.528;9.942;2023-02-10T06:41:02;117.35;;;42.05;;
34278;SDS011;20538;51.528;9.942;2023-02-10T06:43:27;124.85;;;42.42;;
34278;SDS011;20538;51.528;9.942;2023-02-10T06:45:53;117.38;;;42.75;;
34278;SDS011;20538;51.528;9.942;2023-02-10T06:48:19;116.72;;;41.63;;
34278;SDS011;20538;51.528;9.942;2023-02-10T06:50:44;112.60;;;39.20;;
34278;SDS011;20538;51.528;9.942;2023-02-10T06:53:10;114.68;;;41.45;;
34278;SDS011;20538;51.528;9.942;2023-02-10T06:55:36;115.93;;;41.13;;
34278;SDS011;20538;51.528;9.942;2023-02-10T06:58:01;125.07;;;40.88;;
34278;SDS011;20538;51.528;9.942;2023-02-10T07:00:28;119.43;;;41.90;;
34278;SDS011;20538;51.528;9.942;2023-02-10T07:02:56;118.53;;;40.72;;
34278;SDS011;20538;51.528;9.942;2023-02-10T07:05:22;129.38;;;43.13;;
34278;SDS011;20538;51.528;9.942;2023-02-10T07:07:47;113.80;;;41.58;;
34278;SDS011;20538;51.528;9.942;2023-02-10T07:10:15;114.45;;;41.20;;
34278;SDS011;20538;51.528;9.942;2023-02-10T07:12:44;123.95;;;43.78;;
34278;SDS011;20538;51.528;9.942;2023-02-10T07:15:12;121.90;;;42.35;;
34278;SDS011;20538;51.528;9.942;2023-02-10T07:17:38;105.00;;;41.35;;
34278;SDS011;20538;51.528;9.942;2023-02-10T07:20:03;118.90;;;41.95;;
34278;SDS011;20538;51.528;9.942;2023-02-10T07:22:30;115.60;;;40.88;;
34278;SDS011;20538;51.528;9.942;2023-02-10T07:24:55;110.88;;;39.70;;
34278;SDS011;20538;51.528;9.942;2023-02-10T07:27:21;94.47;;;38.50;;
34278;SDS011;20538;51.528;9.942;2023-02-10T07:29:47;108.47;;;37.80;;
34278;SDS011;20538;51.528;9.942;2023-02-10T07:32:13;107.18;;;39.38;;
34278;SDS011;20538;51.528;9.942;2023-02-10T07:34:39;112.40;;;37.72;;
34278;SDS011;20538;51.528;9.942;2023-02-10T07:37:05;100.85;;;36.85;;
34278;SDS011;20538;51.528;9.942;2023-02-10T07:39:31;102.00;;;38.03;;
34278;SDS011;20538;51.528;9.942;2023-02-10T07:41:57;104.97;;;39.55;;
34278;SDS011;20538;51.528;9.942;2023-02-10T07:44:22;98.93;;;36.03;;
34278;SDS011;20538;51.528;9.942;2023-02-10T07:46:48;99.13;;;35.65;;
34278;SDS011;20538;51.528;9.942;2023-02-10T07:49:16;94.90;;;35.63;;
34278;SDS011;20538;51.528;9.942;2023-02-10T07:51:42;101.32;;;38.38;;
34278;SDS011;20538;51.528;9.942;2023-02-10T07:54:08;88.60;;;36.80;;
34278;SDS011;20538;51.528;9.942;2023-02-10T07:56:33;99.00;;;35.15;;
34278;SDS011;20538;51.528;9.942;2023-02-10T07:58:59;88.13;;;35.35;;
34278;SDS011;20538;51.528;9.942;2023-02-10T08:01:25;81.53;;;34.72;;
34278;SDS011;20538;51.528;9.942;2023-02-10T08:03:51;87.78;;;34.65;;
34278;SDS011;20538;51.528;9.942;2023-02-10T08:06:20;92.95;;;35.45;;
34278;SDS011;20538;51.528;9.942;2023-02-10T08:08:47;84.78;;;35.47;;
34278;SDS011;20538;51.528;9.942;2023-02-10T08:11:13;99.30;;;36.75;;
34278;SDS011;20538;51.528;9.942;2023-02-10T08:13:40;89.75;;;34.03;;
34278;SDS011;20538;51.528;9.942;2023-02-10T08:16:06;85.97;;;33.47;;
34278;SDS011;20538;51.528;9.942;2023-02-10T08:18:33;80.97;;;32.97;;
34278;SDS011;20538;51.528;9.942;2023-02-10T08:21:02;82.57;;;31.45;;
34278;SDS011;20538;51.528;9.942;2023-02-10T08:23:29;78.78;;;32.65;;
34278;SDS011;20538;51.528;9.942;2023-02-10T08:25:54;89.50;;;34.53;;
34278;SDS011;20538;51.528;9.942;2023-02-10T08:28:20;79.90;;;32.38;;
34278;SDS011;20538;51.528;9.942;2023-02-10T08:30:46;78.28;;;32.80;;
34278;SDS011;20538;51.528;9.942;2023-02-10T08:33:11;77.95;;;32.28;;
34278;SDS011;20538;51.528;9.942;2023-02-10T08:35:38;82.28;;;31.83;;
34278;SDS011;20538;51.528;9.942;2023-02-10T08:38:04;83.90;;;31.38;;
34278;SDS011;20538;51.528;9.942;2023-02-10T08:40:30;76.55;;;30.63;;
34278;SDS011;20538;51.528;9.942;2023-02-10T08:42:57;71.97;;;29.95;;
34278;SDS011;20538;51.528;9.942;2023-02-10T08:45:23;80.22;;;32.17;;
34278;SDS011;20538;51.528;9.942;2023-02-10T08:47:48;83.93;;;31.40;;
34278;SDS011;20538;51.528;9.942;2023-02-10T08:50:14;81.93;;;32.72;;
34278;SDS011;20538;51.528;9.942;2023-02-10T08:52:39;74.90;;;31.40;;
34278;SDS011;20538;51.528;9.942;2023-02-10T08:55:05;78.47;;;31.48;;
34278;SDS011;20538;51.528;9.942;2023-02-10T08:57:32;73.60;;;31.92;;
34278;SDS011;20538;51.528;9.942;2023-02-10T08:59:58;78.63;;;32.53;;
34278;SDS011;20538;51.528;9.942;2023-02-10T09:02:24;75.97;;;31.60;;
34278;SDS011;20538;51.528;9.942;2023-02-10T09:04:49;66.18;;;30.83;;
34278;SDS011;20538;51.528;9.942;2023-02-10T09:07:15;73.65;;;31.05;;
34278;SDS011;20538;51.528;9.942;2023-02-10T09:09:41;70.68;;;32.08;;
34278;SDS011;20538;51.528;9.942;2023-02-10T09:12:08;72.63;;;31.13;;
34278;SDS011;20538;51.528;9.942;2023-02-10T09:14:37;72.10;;;30.23;;
34278;SDS011;20538;51.528;9.942;2023-02-10T09:17:04;71.07;;;31.73;;
34278;SDS011;20538;51.528;9.942;2023-02-10T09:19:33;72.53;;;30.63;;
34278;SDS011;20538;51.528;9.942;2023-02-10T09:21:59;69.97;;;31.27;;
34278;SDS011;20538;51.528;9.942;2023-02-10T09:24:25;69.72;;;32.67;;
34278;SDS011;20538;51.528;9.942;2023-02-10T09:26:50;79.20;;;31.20;;
34278;SDS011;20538;51.528;9.942;2023-02-10T09:29:16;74.38;;;31.40;;
34278;SDS011;20538;51.528;9.942;2023-02-10T09:31:42;72.32;;;30.27;;
34278;SDS011;20538;51.528;9.942;2023-02-10T09:34:08;73.22;;;31.55;;
34278;SDS011;20538;51.528;9.942;2023-02-10T09:36:33;79.05;;;32.05;;
34278;SDS011;20538;51.528;9.942;2023-02-10T09:38:59;70.90;;;31.60;;
34278;SDS011;20538;51.528;9.942;2023-02-10T09:44:05;72.40;;;30.75;;
34278;SDS011;20538;51.528;9.942;2023-02-10T09:46:51;72.35;;;30.50;;
34278;SDS011;20538;51.528;9.942;2023-02-10T09:55:35;68.45;;;29.77;;
34278;SDS011;20538;51.528;9.942;2023-02-10T10:01:05;68.82;;;30.90;;
34278;SDS011;20538;51.528;9.942;2023-02-10T10:03:40;70.68;;;29.58;;
34278;SDS011;20538;51.528;9.942;2023-02-10T10:06:26;73.18;;;30.92;;
34278;SDS011;20538;51.528;9.942;2023-02-10T10:22:41;71.18;;;29.17;;
34278;SDS011;20538;51.528;9.942;2023-02-10T10:28:14;65.57;;;29.42;;
34278;SDS011;20538;51.528;9.942;2023-02-10T10:31:15;70.68;;;29.58;;
34278;SDS011;20538;51.528;9.942;2023-02-10T10:33:45;67.43;;;28.33;;
34278;SDS011;20538;51.528;9.942;2023-02-10T10:36:22;61.95;;;29.08;;
34278;SDS011;20538;51.528;9.942;2023-02-10T10:38:56;65.22;;;28.98;;
34278;SDS011;20538;51.528;9.942;2023-02-10T10:41:26;67.38;;;28.92;;
34278;SDS011;20538;51.528;9.942;2023-02-10T10:43:56;64.55;;;28.35;;
34278;SDS011;20538;51.528;9.942;2023-02-10T10:48:51;64.97;;;31.13;;
34278;SDS011;20538;51.528;9.942;2023-02-10T10:51:17;58.05;;;27.73;;
34278;SDS011;20538;51.528;9.942;2023-02-10T10:53:44;56.58;;;26.88;;
34278;SDS011;20538;51.528;9.942;2023-02-10T10:56:13;58.47;;;25.23;;
34278;SDS011;20538;51.528;9.942;2023-02-10T10:58:55;61.20;;;26.90;;
34278;SDS011;20538;51.528;9.942;2023-02-10T11:01:32;61.83;;;24.67;;
34278;SDS011;20538;51.528;9.942;2023-02-10T11:04:05;61.35;;;23.05;;
34278;SDS011;20538;51.528;9.942;2023-02-10T11:06:43;55.03;;;21.95;;
34278;SDS011;20538;51.528;9.942;2023-02-10T11:09:21;54.97;;;22.83;;
34278;SDS011;20538;51.528;9.942;2023-02-10T11:11:47;51.97;;;22.23;;
34278;SDS011;20538;51.528;9.942;2023-02-10T11:14:15;54.38;;;21.17;;
34278;SDS011;20538;51.528;9.942;2023-02-10T11:16:45;58.25;;;24.73;;
34278;SDS011;20538;51.528;9.942;2023-02-10T11:19:20;57.03;;;23.73;;
34278;SDS011;20538;51.528;9.942;2023-02-10T11:21:48;50.80;;;22.17;;
34278;SDS011;20538;51.528;9.942;2023-02-10T11:24:24;56.13;;;23.63;;
34278;SDS011;20538;51.528;9.942;2023-02-10T11:27:05;55.30;;;23.80;;
34278;SDS011;20538;51.528;9.942;2023-02-10T11:29:58;45.67;;;22.08;;
34278;SDS011;20538;51.528;9.942;2023-02-10T11:34:52;50.35;;;21.40;;
34278;SDS011;20538;51.528;9.942;2023-02-10T11:39:52;47.97;;;23.67;;
34278;SDS011;20538;51.528;9.942;2023-02-10T11:47:21;60.13;;;23.13;;
34278;SDS011;20538;51.528;9.942;2023-02-10T11:49:49;52.40;;;22.98;;
34278;SDS011;20538;51.528;9.942;2023-02-10T11:52:15;48.08;;;22.65;;
34278;SDS011;20538;51.528;9.942;2023-02-10T11:54:44;56.38;;;23.80;;
34278;SDS011;20538;51.528;9.942;2023-02-10T12:05:28;51.60;;;22.23;;
34278;SDS011;20538;51.528;9.942;2023-02-10T12:32:22;56.60;;;22.55;;
34278;SDS011;20538;51.528;9.942;2023-02-10T12:35:15;51.72;;;22.67;;
34278;SDS011;20538;51.528;9.942;2023-02-10T12:40:55;56.85;;;23.70;;
34278;SDS011;20538;51.528;9.942;2023-02-10T12:49:09;65.85;;;25.30;;
34278;SDS011;20538;51.528;9.942;2023-02-10T12:54:48;54.78;;;23.55;;
34278;SDS011;20538;51.528;9.942;2023-02-10T12:57:33;57.70;;;24.83;;
34278;SDS011;20538;51.528;9.942;2023-02-10T13:03:00;53.83;;;22.48;;
34278;SDS011;20538;51.528;9.942;2023-02-10T13:05:38;57.35;;;24.63;;
34278;SDS011;20538;51.528;9.942;2023-02-10T13:08:10;60.60;;;24.90;;
34278;SDS011;20538;51.528;9.942;2023-02-10T13:10:43;59.67;;;26.02;;
34278;SDS011;20538;51.528;9.942;2023-02-10T13:16:08;59.40;;;25.17;;
34278;SDS011;20538;51.528;9.942;2023-02-10T13:18:49;56.55;;;25.50;;
34278;SDS011;20538;51.528;9.942;2023-02-10T13:21:31;60.65;;;24.48;;
34278;SDS011;20538;51.528;9.942;2023-02-10T13:24:15;60.22;;;23.65;;
34278;SDS011;20538;51.528;9.942;2023-02-10T13:29:44;56.35;;;25.27;;
34278;SDS011;20538;51.528;9.942;2023-02-10T13:34:58;61.97;;;26.27;;
34278;SDS011;20538;51.528;9.942;2023-02-10T13:40:03;66.90;;;26.25;;
34278;SDS011;20538;51.528;9.942;2023-02-10T13:42:38;62.25;;;26.52;;
34278;SDS011;20538;51.528;9.942;2023-02-10T13:57:55;60.97;;;27.25;;
34278;SDS011;20538;51.528;9.942;2023-02-10T14:00:28;65.93;;;27.45;;
34278;SDS011;20538;51.528;9.942;2023-02-10T14:11:03;57.17;;;28.20;;
34278;SDS011;20538;51.528;9.942;2023-02-10T14:13:57;65.82;;;29.30;;
34278;SDS011;20538;51.528;9.942;2023-02-10T14:16:41;60.67;;;27.75;;
34278;SDS011;20538;51.528;9.942;2023-02-10T14:19:19;65.13;;;27.60;;
34278;SDS011;20538;51.528;9.942;2023-02-10T14:21:49;58.75;;;28.38;;
34278;SDS011;20538;51.528;9.942;2023-02-10T14:24:23;64.28;;;27.85;;
34278;SDS011;20538;51.528;9.942;2023-02-10T14:26:52;65.05;;;27.35;;
34278;SDS011;20538;51.528;9.942;2023-02-10T14:29:21;63.17;;;27.70;;
34278;SDS011;20538;51.528;9.942;2023-02-10T14:31:49;67.50;;;26.80;;
34278;SDS011;20538;51.528;9.942;2023-02-10T14:34:20;61.17;;;28.10;;
34278;SDS011;20538;51.528;9.942;2023-02-10T14:39:23;64.53;;;27.33;;
34278;SDS011;20538;51.528;9.942;2023-02-10T14:41:50;56.90;;;25.88;;
34278;SDS011;20538;51.528;9.942;2023-02-10T14:44:59;53.75;;;24.95;;
34278;SDS011;20538;51.528;9.942;2023-02-10T14:47:15;54.97;;;24.63;;
34278;SDS011;20538;51.528;9.942;2023-02-10T14:49:42;62.80;;;27.60;;
34278;SDS011;20538;51.528;9.942;2023-02-10T14:52:25;64.82;;;27.88;;
34278;SDS011;20538;51.528;9.942;2023-02-10T14:54:56;56.80;;;26.38;;
34278;SDS011;20538;51.528;9.942;2023-02-10T14:57:22;60.53;;;27.33;;
34278;SDS011;20538;51.528;9.942;2023-02-10T14:59:54;64.80;;;27.48;;
34278;SDS011;20538;51.528;9.942;2023-02-10T15:02:25;62.15;;;26.23;;
34278;SDS011;20538;51.528;9.942;2023-02-10T15:04:54;65.38;;;27.75;;
34278;SDS011;20538;51.528;9.942;2023-02-10T15:07:32;68.32;;;26.35;;
34278;SDS011;20538;51.528;9.942;2023-02-10T15:10:14;59.55;;;26.10;;
34278;SDS011;20538;51.528;9.942;2023-02-10T15:12:42;60.22;;;26.48;;
34278;SDS011;20538;51.528;9.942;2023-02-10T15:17:54;63.55;;;27.58;;
34278;SDS011;20538;51.528;9.942;2023-02-10T15:20:39;69.15;;;28.27;;
34278;SDS011;20538;51.528;9.942;2023-02-10T15:23:16;73.18;;;27.92;;
34278;SDS011;20538;51.528;9.942;2023-02-10T15:25:42;64.18;;;27.17;;
34278;SDS011;20538;51.528;9.942;2023-02-10T15:38:57;61.97;;;26.23;;
34278;SDS011;20538;51.528;9.942;2023-02-10T15:41:43;63.67;;;27.15;;
34278;SDS011;20538;51.528;9.942;2023-02-10T15:49:12;71.60;;;27.20;;
34278;SDS011;20538;51.528;9.942;2023-02-10T15:51:41;62.53;;;25.83;;
34278;SDS011;20538;51.528;9.942;2023-02-10T15:54:12;61.78;;;26.13;;
34278;SDS011;20538;51.528;9.942;2023-02-10T15:56:53;59.75;;;25.58;;
34278;SDS011;20538;51.528;9.942;2023-02-10T15:59:29;63.65;;;26.92;;
34278;SDS011;20538;51.528;9.942;2023-02-10T16:01:56;63.05;;;26.77;;
34278;SDS011;20538;51.528;9.942;2023-02-10T16:04:23;66.90;;;26.65;;
34278;SDS011;20538;51.528;9.942;2023-02-10T16:06:49;62.28;;;26.35;;
34278;SDS011;20538;51.528;9.942;2023-02-10T16:09:15;60.50;;;24.52;;
34278;SDS011;20538;51.528;9.942;2023-02-10T16:11:41;56.15;;;26.27;;
34278;SDS011;20538;51.528;9.942;2023-02-10T16:14:07;60.42;;;25.85;;
34278;SDS011;20538;51.528;9.942;2023-02-10T16:16:32;69.85;;;26.52;;
34278;SDS011;20538;51.528;9.942;2023-02-10T16:19:00;63.03;;;26.65;;
34278;SDS011;20538;51.528;9.942;2023-02-10T16:21:26;68.68;;;27.58;;
34278;SDS011;20538;51.528;9.942;2023-02-10T16:23:52;66.43;;;27.15;;
34278;SDS011;20538;51.528;9.942;2023-02-10T16:26:19;62.10;;;25.10;;
34278;SDS011;20538;51.528;9.942;2023-02-10T16:28:47;70.35;;;28.23;;
34278;SDS011;20538;51.528;9.942;2023-02-10T16:31:13;61.53;;;26.48;;
34278;SDS011;20538;51.528;9.942;2023-02-10T16:33:39;69.78;;;27.23;;
34278;SDS011;20538;51.528;9.942;2023-02-10T16:36:07;67.85;;;26.92;;
34278;SDS011;20538;51.528;9.942;2023-02-10T16:38:35;69.35;;;27.95;;
34278;SDS011;20538;51.528;9.942;2023-02-10T16:41:03;68.57;;;27.85;;
34278;SDS011;20538;51.528;9.942;2023-02-10T16:43:29;84.32;;;32.60;;
34278;SDS011;20538;51.528;9.942;2023-02-10T16:45:55;76.63;;;29.60;;
34278;SDS011;20538;51.528;9.942;2023-02-10T16:48:20;69.65;;;27.75;;
34278;SDS011;20538;51.528;9.942;2023-02-10T16:50:46;76.25;;;30.30;;
34278;SDS011;20538;51.528;9.942;2023-02-10T16:53:12;70.28;;;27.63;;
34278;SDS011;20538;51.528;9.942;2023-02-10T16:55:38;67.78;;;27.55;;
34278;SDS011;20538;51.528;9.942;2023-02-10T16:58:05;78.35;;;30.38;;
34278;SDS011;20538;51.528;9.942;2023-02-10T17:00:32;66.30;;;27.42;;
34278;SDS011;20538;51.528;9.942;2023-02-10T17:02:58;88.55;;;35.47;;
34278;SDS011;20538;51.528;9.942;2023-02-10T17:05:24;85.60;;;36.70;;
34278;SDS011;20538;51.528;9.942;2023-02-10T17:07:50;77.75;;;32.33;;
34278;SDS011;20538;51.528;9.942;2023-02-10T17:10:18;91.05;;;33.60;;
34278;SDS011;20538;51.528;9.942;2023-02-10T17:12:48;77.05;;;32.53;;
34278;SDS011;20538;51.528;9.942;2023-02-10T17:15:17;84.78;;;33.17;;